»·PEaware :: N313WC KASE-KDRO

N313WC :: KASE-KDRO

FLIGHT INFORMATION

Flight Status: Arrived
Operator: Privately registered:
United States
More flights under this callsign
Pilot: Drew L. (13237)
Aircraft: CESSNA 550 CITATION 2/S2/BRAVO
(C550)
More flights by this aircraft type
Origin: KASE Aspen-Pitkin Co/Sardy
United States
Destination: KDRO Durango-La Plata Co
United States
More flights between these airports :: More routes between these airports
Route: LINDZ9 DBL HBU DRO
File this flight plan on PilotEdge
Remarks: ROGER
Altitude:
(Current/Filed)
24,000ft
Speed:
(Current/Filed)
0kts
Departed: 26-Oct-18 04:11 PM
Arrived: 26-Oct-18 04:42 PM
Distance/Time
Traveled:
131nm/0:30
Distance/Time
To Go:
Arrived

Flight Plot

Page will automatically refresh every two minutes.

Flight plan parsing failed; only flown route is shown


Map Options




Map Legend


Flown Route
Filed Route
Departure Airport
Arrival Airport
Navaid (VOR, NDB)
Fix

Horizontal Profiles

Position Reports

Time Latitude Longitude Heading Altitude Ground
Speed
26-Oct-18 15:33 39.221560 -106.866532 249 7778ft 0kts
26-Oct-18 15:34 39.221560 -106.866532 249 7778ft 0kts
26-Oct-18 15:35 39.221560 -106.866532 249 7778ft 0kts
26-Oct-18 15:36 39.221560 -106.866532 249 7778ft 0kts
26-Oct-18 15:37 39.221560 -106.866532 249 7778ft 0kts
26-Oct-18 15:38 39.221560 -106.866532 249 7778ft 0kts
26-Oct-18 15:39 39.221560 -106.866532 249 7778ft 0kts
26-Oct-18 15:40 39.221560 -106.866532 249 7778ft 0kts
26-Oct-18 15:41 39.221560 -106.866532 249 7778ft 0kts
26-Oct-18 15:42 39.221560 -106.866532 249 7778ft 0kts
26-Oct-18 15:43 39.221560 -106.866532 249 7778ft 0kts
26-Oct-18 15:44 39.221560 -106.866532 249 7778ft 0kts
26-Oct-18 15:45 39.221560 -106.866532 249 7778ft 0kts
26-Oct-18 15:46 39.221560 -106.866532 249 7778ft 0kts
26-Oct-18 15:47 39.221560 -106.866532 249 7778ft 0kts
26-Oct-18 15:48 39.221560 -106.866532 249 7778ft 0kts
26-Oct-18 15:49 39.221560 -106.866532 249 7778ft 0kts
26-Oct-18 15:50 39.221560 -106.866532 249 7778ft 0kts
26-Oct-18 15:51 39.221560 -106.866532 249 7778ft 0kts
26-Oct-18 15:52 39.221560 -106.866532 249 7778ft 0kts
26-Oct-18 15:53 39.221560 -106.866532 249 7778ft 0kts
26-Oct-18 15:54 39.221560 -106.866532 249 7778ft 0kts
26-Oct-18 15:55 39.221560 -106.866532 249 7778ft 0kts
26-Oct-18 15:56 39.221560 -106.866532 249 7778ft 0kts
26-Oct-18 15:57 39.221560 -106.866532 249 7778ft 0kts
26-Oct-18 15:58 39.221560 -106.866532 249 7778ft 0kts
26-Oct-18 15:59 39.221560 -106.866532 249 7778ft 0kts
26-Oct-18 16:00 39.221560 -106.866532 249 7778ft 0kts
26-Oct-18 16:01 39.221560 -106.866532 249 7778ft 0kts
26-Oct-18 16:02 39.221560 -106.866532 249 7778ft 0kts
26-Oct-18 16:03 39.221560 -106.866532 249 7778ft 0kts
26-Oct-18 16:04 39.221560 -106.866532 249 7778ft 0kts
26-Oct-18 16:05 39.221560 -106.866532 249 7778ft 0kts
26-Oct-18 16:06 39.221560 -106.866532 249 7778ft 0kts
26-Oct-18 16:07 39.221560 -106.866532 249 7778ft 0kts
26-Oct-18 16:08 39.221560 -106.866532 249 7778ft 0kts
26-Oct-18 16:09 39.221298 -106.866746 164 7778ft 6kts
26-Oct-18 16:10 39.217957 -106.865163 159 7778ft 11kts
26-Oct-18 16:11 39.215245 -106.863868 159 7778ft 14kts
26-Oct-18 16:12 39.211984 -106.862575 214 7778ft 6kts
26-Oct-18 16:13 39.229697 -106.868012 9 8763ft 142kts
26-Oct-18 16:14 39.265914 -106.886424 302 12326ft 164kts
26-Oct-18 16:15 39.291166 -106.941431 299 16104ft 179kts
26-Oct-18 16:16 39.267490 -106.983610 189 19132ft 228kts
26-Oct-18 16:17 39.191794 -106.988690 188 20743ft 290kts
26-Oct-18 16:18 39.108870 -106.994848 188 22975ft 307kts
26-Oct-18 16:19 39.019325 -107.000802 188 23986ft 355kts
26-Oct-18 16:20 38.922882 -107.037472 200 23981ft 373kts
26-Oct-18 16:21 38.823666 -107.078487 199 24289ft 379kts
26-Oct-18 16:22 38.746439 -107.110246 199 24291ft 387kts
26-Oct-18 16:23 38.683826 -107.135956 199 24291ft 390kts
26-Oct-18 16:24 38.581369 -107.177905 199 24292ft 393kts
26-Oct-18 16:25 38.477634 -107.220236 199 24292ft 395kts
26-Oct-18 16:26 38.374154 -107.262337 199 24293ft 395kts
26-Oct-18 16:27 38.270266 -107.304478 199 24295ft 395kts
26-Oct-18 16:28 38.166285 -107.346529 199 24307ft 395kts
26-Oct-18 16:29 38.062752 -107.388261 198 23320ft 385kts
26-Oct-18 16:30 37.962516 -107.428553 198 21807ft 370kts
26-Oct-18 16:31 37.867292 -107.466728 198 20029ft 356kts
26-Oct-18 16:32 37.774478 -107.503834 197 18222ft 347kts
26-Oct-18 16:33 37.687020 -107.538712 197 17339ft 316kts
26-Oct-18 16:34 37.608625 -107.569882 197 17288ft 288kts
26-Oct-18 16:35 37.529900 -107.601117 197 17278ft 308kts
26-Oct-18 16:36 37.446360 -107.634210 197 17255ft 320kts
26-Oct-18 16:37 37.363921 -107.666789 196 15668ft 311kts
26-Oct-18 16:38 37.285534 -107.697688 196 13820ft 299kts
26-Oct-18 16:39 37.215189 -107.734635 219 11949ft 257kts
26-Oct-18 16:40 37.163840 -107.788214 220 10049ft 231kts
26-Oct-18 16:41 37.118470 -107.831813 195 9065ft 178kts
26-Oct-18 16:42 37.105933 -107.796315 43 8091ft 124kts
26-Oct-18 16:43 37.130943 -107.773369 30 6934ft 101kts
26-Oct-18 16:44 37.151446 -107.753847 28 6690ft 32kts
26-Oct-18 16:45 37.156283 -107.751625 323 6690ft 0kts

Navigation Log

Ident Type
Flight plan parsing failed, navigation log unavailable